sensor_id;sensor_type;location;lat;lon;timestamp;P1;durP1;ratioP1;P2;durP2;ratioP2
14272;SDS011;7220;49.450;11.052;2023-01-20T00:00:37;10.20;;;8.50;;
14272;SDS011;7220;49.450;11.052;2023-01-20T00:04:37;11.10;;;9.18;;
14272;SDS011;7220;49.450;11.052;2023-01-20T00:08:38;13.13;;;8.88;;
14272;SDS011;7220;49.450;11.052;2023-01-20T00:12:38;13.32;;;9.40;;
14272;SDS011;7220;49.450;11.052;2023-01-20T00:16:38;13.35;;;9.65;;
14272;SDS011;7220;49.450;11.052;2023-01-20T00:20:39;13.20;;;10.02;;
14272;SDS011;7220;49.450;11.052;2023-01-20T00:24:39;12.30;;;9.55;;
14272;SDS011;7220;49.450;11.052;2023-01-20T00:28:39;11.38;;;9.85;;
14272;SDS011;7220;49.450;11.052;2023-01-20T00:32:40;13.23;;;10.27;;
14272;SDS011;7220;49.450;11.052;2023-01-20T00:36:49;10.30;;;9.10;;
14272;SDS011;7220;49.450;11.052;2023-01-20T00:40:53;13.23;;;9.90;;
14272;SDS011;7220;49.450;11.052;2023-01-20T00:44:54;11.45;;;8.88;;
14272;SDS011;7220;49.450;11.052;2023-01-20T00:48:54;10.27;;;8.85;;
14272;SDS011;7220;49.450;11.052;2023-01-20T00:52:55;12.48;;;9.95;;
14272;SDS011;7220;49.450;11.052;2023-01-20T00:56:55;12.83;;;9.90;;
14272;SDS011;7220;49.450;11.052;2023-01-20T01:00:55;12.20;;;10.18;;
14272;SDS011;7220;49.450;11.052;2023-01-20T01:04:57;12.98;;;10.45;;
14272;SDS011;7220;49.450;11.052;2023-01-20T01:08:57;13.32;;;10.40;;
14272;SDS011;7220;49.450;11.052;2023-01-20T01:13:01;12.82;;;9.52;;
14272;SDS011;7220;49.450;11.052;2023-01-20T01:17:03;12.60;;;10.43;;
14272;SDS011;7220;49.450;11.052;2023-01-20T01:21:07;11.77;;;10.50;;
14272;SDS011;7220;49.450;11.052;2023-01-20T01:25:09;12.95;;;10.38;;
14272;SDS011;7220;49.450;11.052;2023-01-20T01:29:09;11.93;;;10.32;;
14272;SDS011;7220;49.450;11.052;2023-01-20T01:33:10;11.93;;;9.55;;
14272;SDS011;7220;49.450;11.052;2023-01-20T01:37:10;13.00;;;10.50;;
14272;SDS011;7220;49.450;11.052;2023-01-20T01:41:11;12.77;;;10.30;;
14272;SDS011;7220;49.450;11.052;2023-01-20T01:49:17;12.65;;;9.88;;
14272;SDS011;7220;49.450;11.052;2023-01-20T01:53:18;12.52;;;9.65;;
14272;SDS011;7220;49.450;11.052;2023-01-20T01:57:19;13.48;;;10.43;;
14272;SDS011;7220;49.450;11.052;2023-01-20T02:01:20;12.85;;;10.07;;
14272;SDS011;7220;49.450;11.052;2023-01-20T02:05:20;10.68;;;9.23;;
14272;SDS011;7220;49.450;11.052;2023-01-20T02:09:23;13.60;;;10.40;;
14272;SDS011;7220;49.450;11.052;2023-01-20T02:13:25;13.18;;;10.75;;
14272;SDS011;7220;49.450;11.052;2023-01-20T02:17:32;11.88;;;10.50;;
14272;SDS011;7220;49.450;11.052;2023-01-20T02:34:45;13.55;;;11.07;;
14272;SDS011;7220;49.450;11.052;2023-01-20T02:38:59;12.43;;;10.88;;
14272;SDS011;7220;49.450;11.052;2023-01-20T02:43:10;16.67;;;11.05;;
14272;SDS011;7220;49.450;11.052;2023-01-20T02:47:26;14.73;;;11.82;;
14272;SDS011;7220;49.450;11.052;2023-01-20T02:51:35;12.02;;;10.50;;
14272;SDS011;7220;49.450;11.052;2023-01-20T02:55:42;15.30;;;11.77;;
14272;SDS011;7220;49.450;11.052;2023-01-20T02:59:46;15.70;;;12.35;;
14272;SDS011;7220;49.450;11.052;2023-01-20T03:03:52;18.65;;;12.95;;
14272;SDS011;7220;49.450;11.052;2023-01-20T03:07:56;15.40;;;12.23;;
14272;SDS011;7220;49.450;11.052;2023-01-20T03:12:00;18.48;;;12.63;;
14272;SDS011;7220;49.450;11.052;2023-01-20T03:16:08;15.07;;;12.15;;
14272;SDS011;7220;49.450;11.052;2023-01-20T03:20:11;17.30;;;13.02;;
14272;SDS011;7220;49.450;11.052;2023-01-20T03:24:11;14.05;;;12.02;;
14272;SDS011;7220;49.450;11.052;2023-01-20T03:28:12;15.23;;;12.80;;
14272;SDS011;7220;49.450;11.052;2023-01-20T03:32:12;17.48;;;11.48;;
14272;SDS011;7220;49.450;11.052;2023-01-20T03:36:14;16.55;;;12.77;;
14272;SDS011;7220;49.450;11.052;2023-01-20T03:40:15;17.48;;;13.43;;
14272;SDS011;7220;49.450;11.052;2023-01-20T03:56:57;17.42;;;12.85;;
14272;SDS011;7220;49.450;11.052;2023-01-20T04:01:03;17.55;;;14.07;;
14272;SDS011;7220;49.450;11.052;2023-01-20T04:05:07;18.58;;;13.27;;
14272;SDS011;7220;49.450;11.052;2023-01-20T04:09:10;16.27;;;12.77;;
14272;SDS011;7220;49.450;11.052;2023-01-20T04:13:16;19.85;;;14.55;;
14272;SDS011;7220;49.450;11.052;2023-01-20T04:17:16;20.05;;;13.73;;
14272;SDS011;7220;49.450;11.052;2023-01-20T04:21:25;16.98;;;13.70;;
14272;SDS011;7220;49.450;11.052;2023-01-20T04:25:32;19.02;;;13.57;;
14272;SDS011;7220;49.450;11.052;2023-01-20T04:29:34;22.35;;;15.30;;
14272;SDS011;7220;49.450;11.052;2023-01-20T04:33:35;20.42;;;14.48;;
14272;SDS011;7220;49.450;11.052;2023-01-20T04:37:37;17.67;;;14.57;;
14272;SDS011;7220;49.450;11.052;2023-01-20T04:41:37;20.52;;;15.98;;
14272;SDS011;7220;49.450;11.052;2023-01-20T04:45:39;21.67;;;14.95;;
14272;SDS011;7220;49.450;11.052;2023-01-20T04:49:40;20.42;;;15.40;;
14272;SDS011;7220;49.450;11.052;2023-01-20T04:53:40;20.40;;;15.18;;
14272;SDS011;7220;49.450;11.052;2023-01-20T04:57:40;20.20;;;15.55;;
14272;SDS011;7220;49.450;11.052;2023-01-20T05:01:41;21.27;;;15.20;;
14272;SDS011;7220;49.450;11.052;2023-01-20T05:05:41;19.23;;;14.70;;
14272;SDS011;7220;49.450;11.052;2023-01-20T05:09:41;22.20;;;16.17;;
14272;SDS011;7220;49.450;11.052;2023-01-20T05:13:41;21.40;;;16.20;;
14272;SDS011;7220;49.450;11.052;2023-01-20T05:17:42;23.80;;;16.95;;
14272;SDS011;7220;49.450;11.052;2023-01-20T05:21:42;22.00;;;16.23;;
14272;SDS011;7220;49.450;11.052;2023-01-20T07:03:34;31.60;;;21.83;;
14272;SDS011;7220;49.450;11.052;2023-01-20T07:07:34;31.73;;;20.02;;
14272;SDS011;7220;49.450;11.052;2023-01-20T07:11:35;23.40;;;17.33;;
14272;SDS011;7220;49.450;11.052;2023-01-20T07:15:36;25.38;;;18.42;;
14272;SDS011;7220;49.450;11.052;2023-01-20T07:19:36;24.63;;;18.10;;
14272;SDS011;7220;49.450;11.052;2023-01-20T07:23:36;24.15;;;18.90;;
14272;SDS011;7220;49.450;11.052;2023-01-20T07:27:36;25.25;;;18.73;;
14272;SDS011;7220;49.450;11.052;2023-01-20T07:31:37;25.15;;;19.33;;
14272;SDS011;7220;49.450;11.052;2023-01-20T07:35:39;24.15;;;18.55;;
14272;SDS011;7220;49.450;11.052;2023-01-20T07:39:39;28.38;;;19.73;;
14272;SDS011;7220;49.450;11.052;2023-01-20T07:43:39;25.63;;;19.02;;
14272;SDS011;7220;49.450;11.052;2023-01-20T07:47:43;26.45;;;20.25;;
14272;SDS011;7220;49.450;11.052;2023-01-20T07:51:44;28.08;;;20.00;;
14272;SDS011;7220;49.450;11.052;2023-01-20T07:55:44;32.55;;;21.55;;
14272;SDS011;7220;49.450;11.052;2023-01-20T07:59:44;29.33;;;20.52;;
14272;SDS011;7220;49.450;11.052;2023-01-20T08:03:45;28.00;;;21.03;;
14272;SDS011;7220;49.450;11.052;2023-01-20T08:07:48;28.75;;;20.33;;
14272;SDS011;7220;49.450;11.052;2023-01-20T08:11:49;30.20;;;20.67;;
14272;SDS011;7220;49.450;11.052;2023-01-20T08:15:50;30.23;;;21.38;;
14272;SDS011;7220;49.450;11.052;2023-01-20T08:19:50;32.20;;;21.98;;
14272;SDS011;7220;49.450;11.052;2023-01-20T08:23:50;33.13;;;22.35;;
14272;SDS011;7220;49.450;11.052;2023-01-20T08:27:51;30.83;;;20.85;;
14272;SDS011;7220;49.450;11.052;2023-01-20T08:31:51;30.23;;;21.60;;
14272;SDS011;7220;49.450;11.052;2023-01-20T08:35:52;34.75;;;20.98;;
14272;SDS011;7220;49.450;11.052;2023-01-20T08:39:52;30.25;;;21.17;;
14272;SDS011;7220;49.450;11.052;2023-01-20T08:43:52;29.05;;;21.17;;
14272;SDS011;7220;49.450;11.052;2023-01-20T08:47:53;26.65;;;19.27;;
14272;SDS011;7220;49.450;11.052;2023-01-20T08:51:53;24.42;;;19.40;;
14272;SDS011;7220;49.450;11.052;2023-01-20T08:55:55;28.83;;;19.73;;
14272;SDS011;7220;49.450;11.052;2023-01-20T08:59:57;25.88;;;19.60;;
14272;SDS011;7220;49.450;11.052;2023-01-20T09:03:57;28.08;;;20.48;;
14272;SDS011;7220;49.450;11.052;2023-01-20T09:07:58;25.90;;;20.08;;
14272;SDS011;7220;49.450;11.052;2023-01-20T09:11:58;26.85;;;18.40;;
14272;SDS011;7220;49.450;11.052;2023-01-20T09:15:58;24.80;;;18.05;;
14272;SDS011;7220;49.450;11.052;2023-01-20T09:19:59;27.10;;;19.77;;
14272;SDS011;7220;49.450;11.052;2023-01-20T09:23:59;25.40;;;18.83;;
14272;SDS011;7220;49.450;11.052;2023-01-20T09:27:59;24.67;;;18.17;;
14272;SDS011;7220;49.450;11.052;2023-01-20T09:32:00;24.40;;;19.05;;
14272;SDS011;7220;49.450;11.052;2023-01-20T09:36:00;25.33;;;18.83;;
14272;SDS011;7220;49.450;11.052;2023-01-20T09:40:02;27.25;;;19.20;;
14272;SDS011;7220;49.450;11.052;2023-01-20T09:44:40;25.65;;;18.75;;
14272;SDS011;7220;49.450;11.052;2023-01-20T09:53:27;24.15;;;18.02;;
14272;SDS011;7220;49.450;11.052;2023-01-20T09:57:38;23.77;;;17.75;;
14272;SDS011;7220;49.450;11.052;2023-01-20T10:01:41;26.42;;;19.17;;
14272;SDS011;7220;49.450;11.052;2023-01-20T10:05:47;26.75;;;18.60;;
14272;SDS011;7220;49.450;11.052;2023-01-20T10:18:14;24.00;;;17.88;;
14272;SDS011;7220;49.450;11.052;2023-01-20T10:22:26;22.42;;;17.25;;
14272;SDS011;7220;49.450;11.052;2023-01-20T10:26:32;21.63;;;16.30;;
14272;SDS011;7220;49.450;11.052;2023-01-20T10:30:43;20.27;;;16.58;;
14272;SDS011;7220;49.450;11.052;2023-01-20T10:34:45;18.63;;;14.65;;
14272;SDS011;7220;49.450;11.052;2023-01-20T10:38:54;20.08;;;14.77;;
14272;SDS011;7220;49.450;11.052;2023-01-20T10:42:59;19.25;;;14.98;;
14272;SDS011;7220;49.450;11.052;2023-01-20T10:47:07;21.13;;;16.50;;
14272;SDS011;7220;49.450;11.052;2023-01-20T10:56:17;17.02;;;13.18;;
14272;SDS011;7220;49.450;11.052;2023-01-20T11:00:25;16.42;;;13.68;;
14272;SDS011;7220;49.450;11.052;2023-01-20T11:04:29;16.02;;;13.95;;
14272;SDS011;7220;49.450;11.052;2023-01-20T11:08:30;14.98;;;12.23;;
14272;SDS011;7220;49.450;11.052;2023-01-20T11:12:31;14.55;;;12.63;;
14272;SDS011;7220;49.450;11.052;2023-01-20T11:16:38;14.65;;;12.05;;
14272;SDS011;7220;49.450;11.052;2023-01-20T11:20:41;15.60;;;12.32;;
14272;SDS011;7220;49.450;11.052;2023-01-20T11:24:46;15.15;;;12.15;;
14272;SDS011;7220;49.450;11.052;2023-01-20T11:37:19;14.35;;;10.73;;
14272;SDS011;7220;49.450;11.052;2023-01-20T11:45:30;14.52;;;11.43;;
14272;SDS011;7220;49.450;11.052;2023-01-20T11:49:33;11.93;;;10.60;;
14272;SDS011;7220;49.450;11.052;2023-01-20T11:53:33;14.27;;;11.57;;
14272;SDS011;7220;49.450;11.052;2023-01-20T11:57:36;14.05;;;11.90;;
14272;SDS011;7220;49.450;11.052;2023-01-20T12:01:54;15.45;;;12.18;;
14272;SDS011;7220;49.450;11.052;2023-01-20T12:05:59;14.52;;;11.35;;
14272;SDS011;7220;49.450;11.052;2023-01-20T12:10:12;10.85;;;9.38;;
14272;SDS011;7220;49.450;11.052;2023-01-20T12:14:21;13.63;;;10.38;;
14272;SDS011;7220;49.450;11.052;2023-01-20T12:18:41;11.68;;;10.27;;
14272;SDS011;7220;49.450;11.052;2023-01-20T12:27:49;13.50;;;10.65;;
14272;SDS011;7220;49.450;11.052;2023-01-20T12:31:55;12.95;;;10.23;;
14272;SDS011;7220;49.450;11.052;2023-01-20T12:36:03;12.40;;;9.90;;
14272;SDS011;7220;49.450;11.052;2023-01-20T12:53:27;10.68;;;8.13;;
14272;SDS011;7220;49.450;11.052;2023-01-20T13:06:30;10.35;;;9.25;;
14272;SDS011;7220;49.450;11.052;2023-01-20T13:10:48;12.88;;;10.43;;
14272;SDS011;7220;49.450;11.052;2023-01-20T13:19:18;13.98;;;10.98;;
14272;SDS011;7220;49.450;11.052;2023-01-20T13:23:32;14.30;;;11.07;;
14272;SDS011;7220;49.450;11.052;2023-01-20T13:27:35;15.98;;;12.38;;
14272;SDS011;7220;49.450;11.052;2023-01-20T13:35:47;13.05;;;10.38;;
14272;SDS011;7220;49.450;11.052;2023-01-20T13:39:49;14.63;;;11.07;;
14272;SDS011;7220;49.450;11.052;2023-01-20T13:43:50;14.80;;;11.88;;
14272;SDS011;7220;49.450;11.052;2023-01-20T13:51:59;14.85;;;12.00;;
14272;SDS011;7220;49.450;11.052;2023-01-20T13:55:59;16.83;;;12.52;;
14272;SDS011;7220;49.450;11.052;2023-01-20T14:00:01;15.90;;;12.57;;
14272;SDS011;7220;49.450;11.052;2023-01-20T14:04:13;16.13;;;12.30;;
14272;SDS011;7220;49.450;11.052;2023-01-20T14:08:15;16.17;;;12.40;;
14272;SDS011;7220;49.450;11.052;2023-01-20T14:12:16;15.85;;;12.25;;
14272;SDS011;7220;49.450;11.052;2023-01-20T14:16:17;15.43;;;11.88;;
14272;SDS011;7220;49.450;11.052;2023-01-20T14:20:28;15.55;;;12.30;;
14272;SDS011;7220;49.450;11.052;2023-01-20T14:24:33;15.95;;;12.52;;
14272;SDS011;7220;49.450;11.052;2023-01-20T14:28:46;15.40;;;12.00;;
14272;SDS011;7220;49.450;11.052;2023-01-20T14:32:50;13.10;;;11.70;;
14272;SDS011;7220;49.450;11.052;2023-01-20T14:36:52;15.20;;;10.88;;
14272;SDS011;7220;49.450;11.052;2023-01-20T14:40:54;12.30;;;10.18;;
14272;SDS011;7220;49.450;11.052;2023-01-20T14:44:54;13.47;;;9.57;;
14272;SDS011;7220;49.450;11.052;2023-01-20T14:48:56;11.98;;;9.50;;
14272;SDS011;7220;49.450;11.052;2023-01-20T14:52:57;12.15;;;10.02;;
14272;SDS011;7220;49.450;11.052;2023-01-20T14:56:57;11.88;;;9.20;;
14272;SDS011;7220;49.450;11.052;2023-01-20T15:00:59;12.02;;;10.32;;
14272;SDS011;7220;49.450;11.052;2023-01-20T15:05:11;11.25;;;9.07;;
14272;SDS011;7220;49.450;11.052;2023-01-20T15:09:31;14.57;;;10.15;;
14272;SDS011;7220;49.450;11.052;2023-01-20T15:13:33;13.68;;;11.07;;
14272;SDS011;7220;49.450;11.052;2023-01-20T15:17:33;15.18;;;11.23;;
14272;SDS011;7220;49.450;11.052;2023-01-20T15:21:34;15.15;;;11.43;;
14272;SDS011;7220;49.450;11.052;2023-01-20T15:25:35;15.77;;;11.15;;
14272;SDS011;7220;49.450;11.052;2023-01-20T15:29:35;14.68;;;10.60;;
14272;SDS011;7220;49.450;11.052;2023-01-20T15:33:36;14.43;;;10.88;;
14272;SDS011;7220;49.450;11.052;2023-01-20T15:37:36;16.25;;;12.07;;
14272;SDS011;7220;49.450;11.052;2023-01-20T15:41:36;17.58;;;11.65;;
14272;SDS011;7220;49.450;11.052;2023-01-20T15:45:37;14.13;;;11.40;;
14272;SDS011;7220;49.450;11.052;2023-01-20T15:49:37;14.40;;;10.82;;
14272;SDS011;7220;49.450;11.052;2023-01-20T15:53:37;14.40;;;10.90;;
14272;SDS011;7220;49.450;11.052;2023-01-20T15:57:37;16.08;;;11.88;;
14272;SDS011;7220;49.450;11.052;2023-01-20T16:01:38;14.85;;;11.27;;
14272;SDS011;7220;49.450;11.052;2023-01-20T16:05:38;17.05;;;12.20;;
14272;SDS011;7220;49.450;11.052;2023-01-20T16:09:38;16.25;;;12.13;;
14272;SDS011;7220;49.450;11.052;2023-01-20T16:13:39;15.70;;;12.13;;
14272;SDS011;7220;49.450;11.052;2023-01-20T16:17:40;13.82;;;11.48;;
14272;SDS011;7220;49.450;11.052;2023-01-20T16:21:40;16.60;;;13.20;;
14272;SDS011;7220;49.450;11.052;2023-01-20T16:25:41;18.83;;;14.55;;
14272;SDS011;7220;49.450;11.052;2023-01-20T16:29:41;21.17;;;14.25;;
14272;SDS011;7220;49.450;11.052;2023-01-20T16:33:42;16.25;;;13.23;;
14272;SDS011;7220;49.450;11.052;2023-01-20T16:37:43;17.15;;;13.15;;
14272;SDS011;7220;49.450;11.052;2023-01-20T16:41:45;17.65;;;13.45;;
14272;SDS011;7220;49.450;11.052;2023-01-20T16:45:50;18.15;;;13.63;;
14272;SDS011;7220;49.450;11.052;2023-01-20T16:49:53;16.10;;;13.25;;
14272;SDS011;7220;49.450;11.052;2023-01-20T16:53:54;15.70;;;12.50;;
14272;SDS011;7220;49.450;11.052;2023-01-20T16:57:55;17.83;;;13.55;;
14272;SDS011;7220;49.450;11.052;2023-01-20T17:01:56;19.45;;;13.48;;
14272;SDS011;7220;49.450;11.052;2023-01-20T17:05:56;16.45;;;12.35;;
14272;SDS011;7220;49.450;11.052;2023-01-20T17:09:57;19.25;;;14.10;;
14272;SDS011;7220;49.450;11.052;2023-01-20T17:13:59;18.48;;;12.82;;
14272;SDS011;7220;49.450;11.052;2023-01-20T17:18:01;16.45;;;12.57;;
14272;SDS011;7220;49.450;11.052;2023-01-20T17:22:01;17.88;;;13.88;;
14272;SDS011;7220;49.450;11.052;2023-01-20T17:26:02;18.30;;;14.25;;
14272;SDS011;7220;49.450;11.052;2023-01-20T17:30:04;19.88;;;14.55;;
14272;SDS011;7220;49.450;11.052;2023-01-20T17:34:07;22.25;;;16.17;;
14272;SDS011;7220;49.450;11.052;2023-01-20T17:38:08;24.35;;;16.50;;
14272;SDS011;7220;49.450;11.052;2023-01-20T17:42:09;28.98;;;16.55;;
14272;SDS011;7220;49.450;11.052;2023-01-20T17:46:17;30.60;;;18.42;;
14272;SDS011;7220;49.450;11.052;2023-01-20T17:50:18;24.58;;;15.90;;
14272;SDS011;7220;49.450;11.052;2023-01-20T17:54:19;25.20;;;17.75;;
14272;SDS011;7220;49.450;11.052;2023-01-20T17:58:19;27.63;;;17.38;;
14272;SDS011;7220;49.450;11.052;2023-01-20T18:02:19;22.42;;;15.73;;
14272;SDS011;7220;49.450;11.052;2023-01-20T18:06:21;22.98;;;15.18;;
14272;SDS011;7220;49.450;11.052;2023-01-20T18:10:23;21.27;;;15.07;;
14272;SDS011;7220;49.450;11.052;2023-01-20T18:14:23;23.70;;;17.33;;
14272;SDS011;7220;49.450;11.052;2023-01-20T18:18:24;21.13;;;16.33;;
14272;SDS011;7220;49.450;11.052;2023-01-20T18:22:24;21.15;;;16.02;;
14272;SDS011;7220;49.450;11.052;2023-01-20T18:26:26;25.20;;;17.77;;
14272;SDS011;7220;49.450;11.052;2023-01-20T18:30:28;26.10;;;17.55;;
14272;SDS011;7220;49.450;11.052;2023-01-20T18:34:29;26.25;;;19.25;;
14272;SDS011;7220;49.450;11.052;2023-01-20T18:38:29;23.95;;;17.65;;
14272;SDS011;7220;49.450;11.052;2023-01-20T18:42:29;23.70;;;17.88;;
14272;SDS011;7220;49.450;11.052;2023-01-20T18:46:29;25.60;;;18.38;;
14272;SDS011;7220;49.450;11.052;2023-01-20T18:50:30;23.27;;;17.35;;
14272;SDS011;7220;49.450;11.052;2023-01-20T18:54:30;23.10;;;17.45;;
14272;SDS011;7220;49.450;11.052;2023-01-20T18:58:33;24.92;;;18.20;;
14272;SDS011;7220;49.450;11.052;2023-01-20T19:02:34;26.63;;;20.40;;
14272;SDS011;7220;49.450;11.052;2023-01-20T19:06:35;28.35;;;20.75;;
14272;SDS011;7220;49.450;11.052;2023-01-20T19:10:37;29.75;;;21.08;;
14272;SDS011;7220;49.450;11.052;2023-01-20T19:14:37;27.42;;;19.83;;
14272;SDS011;7220;49.450;11.052;2023-01-20T19:18:38;26.92;;;19.38;;
14272;SDS011;7220;49.450;11.052;2023-01-20T19:22:40;30.33;;;22.52;;
14272;SDS011;7220;49.450;11.052;2023-01-20T19:26:40;26.85;;;19.27;;
14272;SDS011;7220;49.450;11.052;2023-01-20T19:30:40;29.60;;;21.65;;
14272;SDS011;7220;49.450;11.052;2023-01-20T19:34:40;28.58;;;20.75;;
14272;SDS011;7220;49.450;11.052;2023-01-20T19:38:44;30.77;;;23.40;;
14272;SDS011;7220;49.450;11.052;2023-01-20T19:42:44;37.90;;;27.65;;
14272;SDS011;7220;49.450;11.052;2023-01-20T19:46:47;40.20;;;28.77;;
14272;SDS011;7220;49.450;11.052;2023-01-20T19:50:48;42.15;;;28.88;;
14272;SDS011;7220;49.450;11.052;2023-01-20T19:54:48;38.30;;;26.55;;
14272;SDS011;7220;49.450;11.052;2023-01-20T19:58:50;39.72;;;28.77;;
14272;SDS011;7220;49.450;11.052;2023-01-20T20:02:51;34.85;;;24.70;;
14272;SDS011;7220;49.450;11.052;2023-01-20T20:06:53;31.48;;;21.77;;
14272;SDS011;7220;49.450;11.052;2023-01-20T20:10:53;31.77;;;22.67;;
14272;SDS011;7220;49.450;11.052;2023-01-20T20:14:54;33.60;;;23.00;;
14272;SDS011;7220;49.450;11.052;2023-01-20T20:18:55;34.97;;;22.08;;
14272;SDS011;7220;49.450;11.052;2023-01-20T20:22:56;32.30;;;21.75;;
14272;SDS011;7220;49.450;11.052;2023-01-20T20:26:57;33.30;;;24.38;;
14272;SDS011;7220;49.450;11.052;2023-01-20T20:31:02;33.88;;;23.23;;
14272;SDS011;7220;49.450;11.052;2023-01-20T20:35:04;31.48;;;22.98;;
14272;SDS011;7220;49.450;11.052;2023-01-20T20:39:05;30.83;;;23.48;;
14272;SDS011;7220;49.450;11.052;2023-01-20T20:43:06;31.02;;;22.90;;
14272;SDS011;7220;49.450;11.052;2023-01-20T20:47:07;29.88;;;23.00;;
14272;SDS011;7220;49.450;11.052;2023-01-20T20:51:08;34.55;;;24.13;;
14272;SDS011;7220;49.450;11.052;2023-01-20T20:55:10;34.33;;;24.98;;
14272;SDS011;7220;49.450;11.052;2023-01-20T20:59:11;32.25;;;24.20;;
14272;SDS011;7220;49.450;11.052;2023-01-20T21:03:11;29.95;;;22.95;;
14272;SDS011;7220;49.450;11.052;2023-01-20T21:07:12;32.42;;;22.88;;
14272;SDS011;7220;49.450;11.052;2023-01-20T21:11:14;35.00;;;23.40;;
14272;SDS011;7220;49.450;11.052;2023-01-20T21:15:14;31.85;;;24.40;;
14272;SDS011;7220;49.450;11.052;2023-01-20T21:19:16;38.22;;;24.30;;
14272;SDS011;7220;49.450;11.052;2023-01-20T21:23:17;33.05;;;24.00;;
14272;SDS011;7220;49.450;11.052;2023-01-20T21:27:17;32.03;;;21.70;;
14272;SDS011;7220;49.450;11.052;2023-01-20T21:31:18;33.53;;;22.45;;
14272;SDS011;7220;49.450;11.052;2023-01-20T21:35:20;35.10;;;23.95;;
14272;SDS011;7220;49.450;11.052;2023-01-20T21:39:21;35.63;;;23.75;;
14272;SDS011;7220;49.450;11.052;2023-01-20T21:43:21;31.00;;;23.27;;
14272;SDS011;7220;49.450;11.052;2023-01-20T21:47:40;33.40;;;23.08;;
14272;SDS011;7220;49.450;11.052;2023-01-20T21:51:41;30.30;;;21.90;;
14272;SDS011;7220;49.450;11.052;2023-01-20T21:55:59;31.83;;;23.58;;
14272;SDS011;7220;49.450;11.052;2023-01-20T22:00:00;33.65;;;23.52;;
14272;SDS011;7220;49.450;11.052;2023-01-20T22:04:01;31.13;;;22.95;;
14272;SDS011;7220;49.450;11.052;2023-01-20T22:08:02;31.20;;;23.05;;
14272;SDS011;7220;49.450;11.052;2023-01-20T22:12:02;36.22;;;25.00;;
14272;SDS011;7220;49.450;11.052;2023-01-20T22:16:03;35.03;;;24.38;;
14272;SDS011;7220;49.450;11.052;2023-01-20T22:20:04;33.78;;;22.98;;
14272;SDS011;7220;49.450;11.052;2023-01-20T22:24:05;28.83;;;22.70;;
14272;SDS011;7220;49.450;11.052;2023-01-20T22:28:06;31.97;;;22.60;;
14272;SDS011;7220;49.450;11.052;2023-01-20T22:32:06;28.65;;;21.80;;
14272;SDS011;7220;49.450;11.052;2023-01-20T22:36:06;27.83;;;21.25;;
14272;SDS011;7220;49.450;11.052;2023-01-20T22:40:07;30.33;;;21.67;;
14272;SDS011;7220;49.450;11.052;2023-01-20T22:44:08;27.45;;;20.45;;
14272;SDS011;7220;49.450;11.052;2023-01-20T22:48:08;26.27;;;20.30;;
14272;SDS011;7220;49.450;11.052;2023-01-20T22:52:08;28.30;;;19.50;;
14272;SDS011;7220;49.450;11.052;2023-01-20T22:56:19;30.07;;;19.73;;
14272;SDS011;7220;49.450;11.052;2023-01-20T23:00:21;25.90;;;19.13;;
14272;SDS011;7220;49.450;11.052;2023-01-20T23:04:22;26.07;;;19.37;;
14272;SDS011;7220;49.450;11.052;2023-01-20T23:08:23;24.20;;;18.10;;
14272;SDS011;7220;49.450;11.052;2023-01-20T23:12:24;25.67;;;18.23;;
14272;SDS011;7220;49.450;11.052;2023-01-20T23:16:24;26.87;;;18.57;;
14272;SDS011;7220;49.450;11.052;2023-01-20T23:20:24;25.10;;;18.73;;
14272;SDS011;7220;49.450;11.052;2023-01-20T23:24:25;24.33;;;18.53;;
14272;SDS011;7220;49.450;11.052;2023-01-20T23:28:25;23.43;;;17.67;;
14272;SDS011;7220;49.450;11.052;2023-01-20T23:32:25;25.37;;;18.63;;
14272;SDS011;7220;49.450;11.052;2023-01-20T23:36:26;22.97;;;18.10;;
14272;SDS011;7220;49.450;11.052;2023-01-20T23:40:26;28.23;;;19.43;;
14272;SDS011;7220;49.450;11.052;2023-01-20T23:44:29;25.90;;;18.20;;
14272;SDS011;7220;49.450;11.052;2023-01-20T23:48:29;26.90;;;18.43;;
14272;SDS011;7220;49.450;11.052;2023-01-20T23:52:30;25.93;;;17.90;;
14272;SDS011;7220;49.450;11.052;2023-01-20T23:56:30;27.70;;;17.83;;
